PAY1100 KSTL-KMEM
Flight info
| Callsign | PAY1100 |
|---|---|
| Flight time | 0h 51m |
| Altitude | 34000 |
| Route | CHUUC6 MYERZ WHOLL BRBBQ3 |
| Aircraft | B738/M-SBDE1E2E3FGHRWXY/LB1 |
Departure
| Time | 2026-05-03 20:30 |
|---|---|
| Airport | St. Louis Lambert International Airport (KSTL) |
Arrival
| Time | 2026-05-03 21:22 |
|---|---|
| Airport | Memphis International Airport (KMEM) |
| Time | Latitude | Longitude | Altitude | Speed | Heading |
|---|---|---|---|---|---|
| 2026-05-03 20:18 | 38.74512 | -90.36712 | 547 ft | 0 kts | 254° |
| 2026-05-03 20:22 | 38.74515 | -90.36702 | 547 ft | 2 kts | 248° |
| 2026-05-03 20:23 | 38.74521 | -90.36684 | 547 ft | 2 kts | 251° |
| 2026-05-03 20:23 | 38.74526 | -90.36666 | 547 ft | 2 kts | 249° |
| 2026-05-03 20:23 | 38.74531 | -90.36648 | 547 ft | 2 kts | 250° |
| 2026-05-03 20:23 | 38.74537 | -90.36630 | 546 ft | 2 kts | 250° |
| 2026-05-03 20:24 | 38.74540 | -90.36621 | 546 ft | 0 kts | 281° |
| 2026-05-03 20:24 | 38.74537 | -90.36614 | 546 ft | 1 kts | 310° |
| 2026-05-03 20:24 | 38.74536 | -90.36611 | 546 ft | 0 kts | 307° |
| 2026-05-03 20:26 | 38.74545 | -90.36628 | 546 ft | 9 kts | 305° |
| 2026-05-03 20:26 | 38.74594 | -90.36728 | 546 ft | 15 kts | 301° |
| 2026-05-03 20:26 | 38.74672 | -90.36896 | 545 ft | 27 kts | 301° |
| 2026-05-03 20:26 | 38.74781 | -90.37111 | 543 ft | 29 kts | 302° |
| 2026-05-03 20:27 | 38.74870 | -90.37241 | 540 ft | 16 kts | 342° |
| 2026-05-03 20:27 | 38.74957 | -90.37327 | 540 ft | 16 kts | 302° |
| 2026-05-03 20:27 | 38.75026 | -90.37470 | 539 ft | 22 kts | 302° |
| 2026-05-03 20:27 | 38.75144 | -90.37707 | 541 ft | 22 kts | 301° |
| 2026-05-03 20:28 | 38.75171 | -90.37762 | 541 ft | 3 kts | 304° |
| 2026-05-03 20:28 | 38.75198 | -90.37789 | 542 ft | 6 kts | 336° |
| 2026-05-03 20:28 | 38.75256 | -90.37779 | 543 ft | 10 kts | 37° |
| 2026-05-03 20:28 | 38.75280 | -90.37697 | 543 ft | 9 kts | 111° |
| 2026-05-03 20:29 | 38.75266 | -90.37665 | 543 ft | 0 kts | 120° |
| 2026-05-03 20:29 | 38.75255 | -90.37640 | 542 ft | 23 kts | 121° |
| 2026-05-03 20:29 | 38.74992 | -90.37113 | 539 ft | 112 kts | 123° |
| 2026-05-03 20:30 | 38.74452 | -90.35996 | 654 ft | 172 kts | 126° |
| 2026-05-03 20:30 | 38.73874 | -90.34615 | 1396 ft | 182 kts | 124° |
| 2026-05-03 20:30 | 38.73300 | -90.33117 | 2219 ft | 193 kts | 123° |
| 2026-05-03 20:30 | 38.72665 | -90.31494 | 2734 ft | 212 kts | 124° |
| 2026-05-03 20:31 | 38.71854 | -90.29869 | 3353 ft | 224 kts | 137° |
| 2026-05-03 20:31 | 38.70638 | -90.28590 | 3952 ft | 231 kts | 159° |
| 2026-05-03 20:31 | 38.69092 | -90.27981 | 4567 ft | 239 kts | 181° |
| 2026-05-03 20:31 | 38.67410 | -90.28074 | 5255 ft | 247 kts | 195° |
| 2026-05-03 20:32 | 38.65703 | -90.28566 | 5984 ft | 257 kts | 200° |
| 2026-05-03 20:32 | 38.63428 | -90.29528 | 7110 ft | 261 kts | 214° |
| 2026-05-03 20:32 | 38.62419 | -90.30349 | 7672 ft | 260 kts | 223° |
| 2026-05-03 20:32 | 38.61024 | -90.31812 | 8521 ft | 264 kts | 227° |
| 2026-05-03 20:33 | 38.59632 | -90.33350 | 9426 ft | 268 kts | 228° |
| 2026-05-03 20:33 | 38.58207 | -90.34900 | 10260 ft | 273 kts | 228° |
| 2026-05-03 20:33 | 38.56717 | -90.36491 | 10851 ft | 288 kts | 228° |
| 2026-05-03 20:33 | 38.55111 | -90.38146 | 11374 ft | 306 kts | 224° |
| 2026-05-03 20:34 | 38.53173 | -90.39529 | 11837 ft | 334 kts | 210° |
| 2026-05-03 20:34 | 38.50926 | -90.40520 | 12419 ft | 351 kts | 205° |
| 2026-05-03 20:34 | 38.48527 | -90.41394 | 13100 ft | 361 kts | 203° |
| 2026-05-03 20:34 | 38.46087 | -90.42250 | 13845 ft | 368 kts | 203° |
| 2026-05-03 20:35 | 38.43619 | -90.43145 | 14683 ft | 371 kts | 203° |
| 2026-05-03 20:35 | 38.41132 | -90.44081 | 15460 ft | 375 kts | 204° |
| 2026-05-03 20:35 | 38.38629 | -90.45049 | 16280 ft | 378 kts | 204° |
| 2026-05-03 20:35 | 38.35259 | -90.46377 | 17280 ft | 384 kts | 204° |
| 2026-05-03 20:36 | 38.33552 | -90.47053 | 17783 ft | 386 kts | 204° |
| 2026-05-03 20:36 | 38.30976 | -90.48075 | 18492 ft | 391 kts | 204° |
| 2026-05-03 20:36 | 38.28358 | -90.49113 | 19196 ft | 395 kts | 204° |
| 2026-05-03 20:36 | 38.25721 | -90.50156 | 19862 ft | 400 kts | 204° |
| 2026-05-03 20:37 | 38.23056 | -90.51208 | 20582 ft | 403 kts | 204° |
| 2026-05-03 20:37 | 38.20364 | -90.52268 | 21220 ft | 407 kts | 204° |
| 2026-05-03 20:37 | 38.17645 | -90.53339 | 21843 ft | 412 kts | 204° |
| 2026-05-03 20:37 | 38.14887 | -90.54424 | 22473 ft | 416 kts | 204° |
| 2026-05-03 20:38 | 38.12102 | -90.55508 | 23079 ft | 421 kts | 203° |
| 2026-05-03 20:38 | 38.09246 | -90.56465 | 23662 ft | 429 kts | 198° |
| 2026-05-03 20:38 | 38.06291 | -90.57134 | 24302 ft | 434 kts | 194° |
| 2026-05-03 20:38 | 38.03265 | -90.57596 | 24831 ft | 440 kts | 192° |
| 2026-05-03 20:39 | 38.00192 | -90.57950 | 25415 ft | 444 kts | 191° |
| 2026-05-03 20:39 | 37.97099 | -90.58258 | 25929 ft | 448 kts | 190° |
| 2026-05-03 20:39 | 37.93971 | -90.58554 | 26423 ft | 452 kts | 191° |
| 2026-05-03 20:39 | 37.90815 | -90.58855 | 26950 ft | 454 kts | 191° |
| 2026-05-03 20:40 | 37.87647 | -90.59165 | 27392 ft | 458 kts | 191° |
| 2026-05-03 20:40 | 37.84462 | -90.59487 | 27908 ft | 460 kts | 191° |
| 2026-05-03 20:40 | 37.81249 | -90.59820 | 28323 ft | 464 kts | 191° |
| 2026-05-03 20:40 | 37.78026 | -90.60160 | 28841 ft | 465 kts | 191° |
| 2026-05-03 20:41 | 37.74809 | -90.60498 | 29555 ft | 461 kts | 192° |
| 2026-05-03 20:41 | 37.71626 | -90.60834 | 30191 ft | 458 kts | 192° |
| 2026-05-03 20:41 | 37.68448 | -90.61173 | 30753 ft | 458 kts | 192° |
| 2026-05-03 20:41 | 37.65263 | -90.61515 | 31299 ft | 457 kts | 192° |
| 2026-05-03 20:42 | 37.62085 | -90.61858 | 31827 ft | 456 kts | 192° |
| 2026-05-03 20:42 | 37.58934 | -90.62197 | 32476 ft | 452 kts | 192° |
| 2026-05-03 20:42 | 37.55791 | -90.62535 | 33000 ft | 451 kts | 192° |
| 2026-05-03 20:42 | 37.52658 | -90.62874 | 33439 ft | 451 kts | 192° |
| 2026-05-03 20:43 | 37.49524 | -90.63214 | 33924 ft | 450 kts | 193° |
| 2026-05-03 20:43 | 37.43238 | -90.63898 | 33996 ft | 451 kts | 193° |
| 2026-05-03 20:44 | 37.37005 | -90.64567 | 33863 ft | 450 kts | 193° |
| 2026-05-03 20:44 | 37.33894 | -90.64904 | 33585 ft | 448 kts | 192° |
| 2026-05-03 20:44 | 37.30798 | -90.65235 | 33309 ft | 444 kts | 192° |
| 2026-05-03 20:44 | 37.27721 | -90.65563 | 33032 ft | 442 kts | 192° |
| 2026-05-03 20:45 | 37.24653 | -90.65901 | 32757 ft | 441 kts | 193° |
| 2026-05-03 20:45 | 37.21622 | -90.66420 | 32479 ft | 435 kts | 198° |
| 2026-05-03 20:45 | 37.17782 | -90.67762 | 32109 ft | 422 kts | 208° |
| 2026-05-03 20:45 | 37.15973 | -90.68678 | 31928 ft | 419 kts | 211° |
| 2026-05-03 20:46 | 37.13332 | -90.70206 | 31651 ft | 415 kts | 213° |
| 2026-05-03 20:46 | 37.10751 | -90.71821 | 31376 ft | 414 kts | 214° |
| 2026-05-03 20:46 | 37.08197 | -90.73465 | 31101 ft | 411 kts | 214° |
| 2026-05-03 20:46 | 37.05659 | -90.75109 | 30823 ft | 409 kts | 214° |
| 2026-05-03 20:47 | 37.03137 | -90.76735 | 30548 ft | 406 kts | 214° |
| 2026-05-03 20:47 | 37.02026 | -90.77447 | 30425 ft | 405 kts | 214° |
| 2026-05-03 20:47 | 37.00316 | -90.78538 | 30235 ft | 404 kts | 214° |
| 2026-05-03 20:48 | 36.97809 | -90.80129 | 29975 ft | 403 kts | 214° |
| 2026-05-03 20:48 | 36.95301 | -90.81713 | 29712 ft | 403 kts | 214° |
| 2026-05-03 20:48 | 36.92791 | -90.83290 | 29447 ft | 402 kts | 213° |
| 2026-05-03 20:48 | 36.90290 | -90.84855 | 29186 ft | 401 kts | 213° |
| 2026-05-03 20:49 | 36.87782 | -90.86419 | 28919 ft | 400 kts | 213° |
| 2026-05-03 20:49 | 36.85294 | -90.87968 | 28656 ft | 399 kts | 213° |
| 2026-05-03 20:49 | 36.82807 | -90.89516 | 28395 ft | 398 kts | 213° |
| 2026-05-03 20:49 | 36.80336 | -90.91051 | 28130 ft | 396 kts | 213° |
| 2026-05-03 20:50 | 36.77867 | -90.92583 | 27868 ft | 395 kts | 213° |
| 2026-05-03 20:50 | 36.75411 | -90.94106 | 27608 ft | 394 kts | 213° |
| 2026-05-03 20:50 | 36.72956 | -90.95626 | 27344 ft | 393 kts | 213° |
| 2026-05-03 20:50 | 36.70511 | -90.97140 | 27078 ft | 391 kts | 213° |
| 2026-05-03 20:51 | 36.68076 | -90.98647 | 26818 ft | 391 kts | 213° |
| 2026-05-03 20:51 | 36.65639 | -91.00154 | 26558 ft | 390 kts | 213° |
| 2026-05-03 20:51 | 36.63218 | -91.01650 | 26294 ft | 389 kts | 213° |
| 2026-05-03 20:51 | 36.60797 | -91.03146 | 26036 ft | 388 kts | 213° |
| 2026-05-03 20:52 | 36.58382 | -91.04636 | 25776 ft | 387 kts | 213° |
| 2026-05-03 20:52 | 36.55975 | -91.06119 | 25516 ft | 385 kts | 213° |
| 2026-05-03 20:52 | 36.53575 | -91.07597 | 25257 ft | 384 kts | 213° |
| 2026-05-03 20:52 | 36.51183 | -91.09070 | 24998 ft | 382 kts | 212° |
| 2026-05-03 20:53 | 36.48803 | -91.10533 | 24732 ft | 381 kts | 212° |
| 2026-05-03 20:53 | 36.46428 | -91.11995 | 24464 ft | 380 kts | 212° |
| 2026-05-03 20:53 | 36.44071 | -91.13444 | 24199 ft | 377 kts | 212° |
| 2026-05-03 20:53 | 36.41713 | -91.14891 | 23933 ft | 377 kts | 212° |
| 2026-05-03 20:54 | 36.39361 | -91.16334 | 23669 ft | 375 kts | 212° |
| 2026-05-03 20:54 | 36.34685 | -91.19201 | 23135 ft | 374 kts | 212° |
| 2026-05-03 20:54 | 36.32351 | -91.20631 | 22875 ft | 373 kts | 212° |
| 2026-05-03 20:55 | 36.30032 | -91.22048 | 22611 ft | 371 kts | 212° |
| 2026-05-03 20:55 | 36.27718 | -91.23463 | 22350 ft | 370 kts | 212° |
| 2026-05-03 20:55 | 36.25411 | -91.24871 | 22090 ft | 369 kts | 211° |
| 2026-05-03 20:55 | 36.23069 | -91.26181 | 21825 ft | 370 kts | 207° |
| 2026-05-03 20:56 | 36.20587 | -91.27087 | 21556 ft | 375 kts | 194° |
| 2026-05-03 20:56 | 36.17960 | -91.27314 | 21290 ft | 379 kts | 182° |
| 2026-05-03 20:56 | 36.15336 | -91.26927 | 21030 ft | 377 kts | 172° |
| 2026-05-03 20:56 | 36.12814 | -91.26104 | 20770 ft | 371 kts | 164° |
| 2026-05-03 20:57 | 36.10427 | -91.24961 | 20509 ft | 365 kts | 158° |
| 2026-05-03 20:57 | 36.08148 | -91.23639 | 20262 ft | 358 kts | 156° |
| 2026-05-03 20:57 | 36.05955 | -91.22272 | 19977 ft | 349 kts | 155° |
| 2026-05-03 20:57 | 36.03787 | -91.20898 | 19764 ft | 347 kts | 155° |
| 2026-05-03 20:58 | 36.01654 | -91.19556 | 19497 ft | 341 kts | 155° |
| 2026-05-03 20:58 | 35.99546 | -91.18246 | 19227 ft | 335 kts | 155° |
| 2026-05-03 20:58 | 35.97466 | -91.16969 | 18974 ft | 333 kts | 155° |
| 2026-05-03 20:58 | 35.95383 | -91.15700 | 18727 ft | 333 kts | 156° |
| 2026-05-03 20:59 | 35.93319 | -91.14448 | 18458 ft | 327 kts | 156° |
| 2026-05-03 20:59 | 35.91284 | -91.13218 | 18200 ft | 323 kts | 156° |
| 2026-05-03 20:59 | 35.89262 | -91.11999 | 17952 ft | 323 kts | 155° |
| 2026-05-03 20:59 | 35.87235 | -91.10780 | 17699 ft | 323 kts | 155° |
| 2026-05-03 21:00 | 35.85217 | -91.09566 | 17439 ft | 320 kts | 155° |
| 2026-05-03 21:00 | 35.83882 | -91.08763 | 17271 ft | 317 kts | 155° |
| 2026-05-03 21:00 | 35.81237 | -91.07174 | 16941 ft | 315 kts | 155° |
| 2026-05-03 21:00 | 35.79259 | -91.05989 | 16693 ft | 314 kts | 155° |
| 2026-05-03 21:01 | 35.77295 | -91.04816 | 16441 ft | 312 kts | 155° |
| 2026-05-03 21:01 | 35.73216 | -91.02381 | 15912 ft | 309 kts | 155° |
| 2026-05-03 21:01 | 35.71288 | -91.01231 | 15659 ft | 307 kts | 155° |
| 2026-05-03 21:02 | 35.69376 | -91.00091 | 15406 ft | 304 kts | 155° |
| 2026-05-03 21:02 | 35.67479 | -90.98959 | 15146 ft | 301 kts | 155° |
| 2026-05-03 21:02 | 35.65599 | -90.97839 | 14898 ft | 299 kts | 155° |
| 2026-05-03 21:02 | 35.63715 | -90.96717 | 14648 ft | 297 kts | 155° |
| 2026-05-03 21:03 | 35.61849 | -90.95606 | 14402 ft | 296 kts | 155° |
| 2026-05-03 21:03 | 35.59999 | -90.94505 | 14148 ft | 294 kts | 155° |
| 2026-05-03 21:03 | 35.58157 | -90.93410 | 13898 ft | 291 kts | 155° |
| 2026-05-03 21:03 | 35.57775 | -90.93183 | 13844 ft | 290 kts | 155° |
| 2026-05-03 21:04 | 35.56713 | -90.92552 | 13696 ft | 288 kts | 155° |
| 2026-05-03 21:04 | 35.54924 | -90.91489 | 13448 ft | 283 kts | 155° |
| 2026-05-03 21:04 | 35.53163 | -90.90444 | 13201 ft | 279 kts | 155° |
| 2026-05-03 21:04 | 35.51450 | -90.89361 | 12950 ft | 275 kts | 148° |
| 2026-05-03 21:05 | 35.50000 | -90.87867 | 12695 ft | 273 kts | 125° |
| 2026-05-03 21:05 | 35.49113 | -90.85824 | 12470 ft | 271 kts | 109° |
| 2026-05-03 21:05 | 35.48446 | -90.83673 | 12221 ft | 269 kts | 108° |
| 2026-05-03 21:05 | 35.47787 | -90.81530 | 11973 ft | 267 kts | 109° |
| 2026-05-03 21:06 | 35.47099 | -90.79394 | 11723 ft | 266 kts | 110° |
| 2026-05-03 21:06 | 35.46403 | -90.77293 | 11504 ft | 265 kts | 110° |
| 2026-05-03 21:06 | 35.45701 | -90.75205 | 11275 ft | 266 kts | 110° |
| 2026-05-03 21:06 | 35.44993 | -90.73099 | 10927 ft | 267 kts | 110° |
| 2026-05-03 21:07 | 35.44285 | -90.70992 | 10587 ft | 267 kts | 111° |
| 2026-05-03 21:07 | 35.43578 | -90.68887 | 10342 ft | 263 kts | 110° |
| 2026-05-03 21:07 | 35.42890 | -90.66842 | 10235 ft | 256 kts | 110° |
| 2026-05-03 21:07 | 35.42208 | -90.64811 | 10148 ft | 259 kts | 111° |
| 2026-05-03 21:08 | 35.41541 | -90.62772 | 10056 ft | 255 kts | 108° |
| 2026-05-03 21:08 | 35.40983 | -90.60692 | 10068 ft | 258 kts | 105° |
| 2026-05-03 21:08 | 35.40469 | -90.58585 | 10061 ft | 257 kts | 105° |
| 2026-05-03 21:08 | 35.39947 | -90.56487 | 10067 ft | 258 kts | 105° |
| 2026-05-03 21:09 | 35.39404 | -90.54393 | 10064 ft | 258 kts | 106° |
| 2026-05-03 21:09 | 35.38851 | -90.52299 | 10065 ft | 258 kts | 106° |
| 2026-05-03 21:09 | 35.38294 | -90.50208 | 10067 ft | 258 kts | 106° |
| 2026-05-03 21:09 | 35.37736 | -90.48112 | 10068 ft | 259 kts | 106° |
| 2026-05-03 21:10 | 35.37178 | -90.46015 | 10066 ft | 259 kts | 105° |
| 2026-05-03 21:10 | 35.36617 | -90.43904 | 10000 ft | 260 kts | 106° |
| 2026-05-03 21:10 | 35.36055 | -90.41792 | 9746 ft | 260 kts | 106° |
| 2026-05-03 21:10 | 35.35494 | -90.39688 | 9431 ft | 260 kts | 106° |
| 2026-05-03 21:11 | 35.34934 | -90.37588 | 9118 ft | 260 kts | 106° |
| 2026-05-03 21:11 | 35.34373 | -90.35487 | 8798 ft | 259 kts | 107° |
| 2026-05-03 21:11 | 35.33813 | -90.33388 | 8484 ft | 259 kts | 107° |
| 2026-05-03 21:11 | 35.33253 | -90.31294 | 8166 ft | 258 kts | 107° |
| 2026-05-03 21:12 | 35.32695 | -90.29207 | 7858 ft | 257 kts | 108° |
| 2026-05-03 21:12 | 35.32139 | -90.27131 | 7550 ft | 257 kts | 107° |
| 2026-05-03 21:12 | 35.31584 | -90.25058 | 7247 ft | 256 kts | 108° |
| 2026-05-03 21:12 | 35.31030 | -90.22994 | 6950 ft | 254 kts | 108° |
| 2026-05-03 21:13 | 35.30440 | -90.20794 | 6609 ft | 253 kts | 108° |
| 2026-05-03 21:13 | 35.29896 | -90.18767 | 6317 ft | 247 kts | 108° |
| 2026-05-03 21:13 | 35.29362 | -90.16783 | 6015 ft | 243 kts | 108° |
| 2026-05-03 21:13 | 35.28842 | -90.14848 | 5728 ft | 237 kts | 108° |
| 2026-05-03 21:14 | 35.28333 | -90.12953 | 5443 ft | 231 kts | 109° |
| 2026-05-03 21:14 | 35.27835 | -90.11105 | 5172 ft | 226 kts | 109° |
| 2026-05-03 21:14 | 35.27350 | -90.09304 | 4905 ft | 221 kts | 109° |
| 2026-05-03 21:14 | 35.26876 | -90.07546 | 4646 ft | 216 kts | 109° |
| 2026-05-03 21:15 | 35.26423 | -90.05865 | 4416 ft | 208 kts | 110° |
| 2026-05-03 21:15 | 35.25986 | -90.04245 | 4281 ft | 196 kts | 110° |
| 2026-05-03 21:15 | 35.25580 | -90.02737 | 4219 ft | 181 kts | 110° |
| 2026-05-03 21:15 | 35.25195 | -90.01313 | 4154 ft | 176 kts | 110° |
| 2026-05-03 21:16 | 35.24826 | -89.99952 | 4153 ft | 170 kts | 110° |
| 2026-05-03 21:16 | 35.24355 | -89.98689 | 4072 ft | 163 kts | 131° |
| 2026-05-03 21:16 | 35.23445 | -89.97974 | 3896 ft | 155 kts | 173° |
| 2026-05-03 21:16 | 35.22412 | -89.98051 | 3677 ft | 147 kts | 197° |
| 2026-05-03 21:17 | 35.21414 | -89.98168 | 3478 ft | 147 kts | 180° |
| 2026-05-03 21:17 | 35.20738 | -89.98093 | 3345 ft | 145 kts | 179° |
| 2026-05-03 21:17 | 35.19401 | -89.98000 | 3111 ft | 144 kts | 180° |
| 2026-05-03 21:17 | 35.18380 | -89.97914 | 2895 ft | 146 kts | 180° |
| 2026-05-03 21:18 | 35.17386 | -89.97871 | 2691 ft | 141 kts | 183° |
| 2026-05-03 21:18 | 35.16400 | -89.97852 | 2518 ft | 142 kts | 183° |
| 2026-05-03 21:18 | 35.15395 | -89.97828 | 2326 ft | 145 kts | 182° |
| 2026-05-03 21:18 | 35.14377 | -89.97806 | 2130 ft | 145 kts | 182° |
| 2026-05-03 21:19 | 35.13388 | -89.97784 | 2089 ft | 138 kts | 183° |
| 2026-05-03 21:19 | 35.12378 | -89.97765 | 2108 ft | 147 kts | 183° |
| 2026-05-03 21:19 | 35.11340 | -89.97742 | 2101 ft | 147 kts | 182° |
| 2026-05-03 21:19 | 35.10340 | -89.97719 | 1913 ft | 145 kts | 182° |
| 2026-05-03 21:20 | 35.09310 | -89.97668 | 1454 ft | 148 kts | 179° |
| 2026-05-03 21:20 | 35.08282 | -89.97613 | 1024 ft | 148 kts | 182° |
| 2026-05-03 21:20 | 35.07265 | -89.97621 | 726 ft | 145 kts | 184° |
| 2026-05-03 21:20 | 35.06273 | -89.97618 | 504 ft | 140 kts | 183° |
| 2026-05-03 21:21 | 35.05322 | -89.97619 | 301 ft | 133 kts | 183° |
| 2026-05-03 21:21 | 35.04471 | -89.97602 | 293 ft | 105 kts | 179° |
| 2026-05-03 21:21 | 35.03885 | -89.97584 | 308 ft | 65 kts | 180° |
| 2026-05-03 21:21 | 35.03448 | -89.97579 | 318 ft | 58 kts | 179° |
| 2026-05-03 21:22 | 35.03223 | -89.97568 | 323 ft | 19 kts | 170° |
| 2026-05-03 21:22 | 35.03168 | -89.97482 | 322 ft | 11 kts | 85° |
| 2026-05-03 21:22 | 35.03241 | -89.97424 | 319 ft | 21 kts | 342° |
| 2026-05-03 21:22 | 35.03440 | -89.97444 | 316 ft | 32 kts | 357° |
| 2026-05-03 21:23 | 35.03659 | -89.97446 | 312 ft | 28 kts | 1° |
| 2026-05-03 21:23 | 35.03860 | -89.97455 | 308 ft | 29 kts | 358° |
| 2026-05-03 21:23 | 35.04077 | -89.97460 | 301 ft | 31 kts | 359° |
| 2026-05-03 21:23 | 35.04305 | -89.97462 | 294 ft | 34 kts | 359° |
| 2026-05-03 21:24 | 35.04548 | -89.97471 | 290 ft | 35 kts | 359° |
| 2026-05-03 21:24 | 35.04799 | -89.97475 | 285 ft | 36 kts | 358° |
| 2026-05-03 21:24 | 35.05051 | -89.97476 | 281 ft | 33 kts | 358° |
| 2026-05-03 21:24 | 35.05289 | -89.97484 | 276 ft | 34 kts | 358° |
| 2026-05-03 21:25 | 35.05516 | -89.97488 | 271 ft | 29 kts | 359° |
| 2026-05-03 21:25 | 35.05736 | -89.97483 | 264 ft | 34 kts | 359° |
| 2026-05-03 21:25 | 35.05886 | -89.97500 | 262 ft | 12 kts | 358° |
| 2026-05-03 21:25 | 35.05942 | -89.97448 | 263 ft | 7 kts | 61° |
| 2026-05-03 21:26 | 35.05984 | -89.97430 | 262 ft | 7 kts | 360° |
| 2026-05-03 21:26 | 35.06020 | -89.97429 | 261 ft | 1 kts | 2° |
| 2026-05-03 21:26 | 35.06027 | -89.97429 | 261 ft | 0 kts | 2° |